Airfield :
LOGIN :

Register | Disclaimer

   EN    FR    IT 

 










Legend :    VFR   Marginal VFR   IFR   Intensive IFR   Very Intensive IFR
Visi :
Ceiling :
>= 8 km
>= 3000ft
5 to 8 km
1000 to 3000 ft
1500m to 5 km
500 to 1000 ft
800 to 1500m
200 to 500 ft
< 800m
< 200 ft
Symbols :   Thunderstorms  Fog  Heavy snow  Heavy precipitations  Wind > 20 kt
SIGMETs :     Misc.  Thunderstorms  Icing  Turbulence  Mountain Waves  Volcanic Ashes






- Airport Elevation : 1017 ft


LFSL - Brive Souillac

CURRENT METAR :
  • 091800Z AUTO 31016KT 9999 FEW023/// BKN074/// BKN086/// ///TCU 08/05 Q1023 NOSIG

EXPIRED METARs :
  • 091730Z AUTO 30016KT 9999 FEW025 SCT031 BKN078 08/05 Q1023 TEMPO SCT030TCU
  • 091700Z AUTO 29014KT 9999 FEW027 BKN033 BKN039 08/05 Q1022 TEMPO 30015G25KT 4000 SHRA BKN014 SCT020TCU
  • 091630Z AUTO 29014KT 260V320 9999 FEW026 BKN033 08/05 Q1022 TEMPO 30015G25KT 4000 SHRA BKN014 SCT020TCU
  • 091600Z AUTO 30012KT CAVOK 08/05 Q1021 TEMPO 4000 SHRA BKN014 SCT020TCU BECMG 30015G25KT
  • 091530Z AUTO 30015KT 9999 FEW032/// ///TCU 09/05 Q1021 TEMPO 4000 SHRA BKN014 SCT020TCU BECMG 30015G25KT

TAF TAF LFSL
Valid from the 09 at 18:00 until the 10 at 03:00 UTC


091700Z 0918/1003 30015G25KT 9999 SCT025
BECMG 0918/0920 30012KT
PROB40
TEMPO 0918/0921 -SHRA SCT030TCU



MET'MAP, your aeronautical weather chart ! - Copyright ORBIFLY December 2007 - Disclaimer

ORBIFLY MET'MAP TEAM :

Programming & Development : Alexandra Zaïnal
Concept & original design : Baudouin d'Aumeries
Assistance for programming : Marc-Olivier Méhu
Technical & hardware support : Manuel Goepfert

Contact : metmap@orbifly.com




SOURCES & CREDITS :

   NOAA